Schaffer, Michigan
Current Conditions -  °F | °C
As of 11:55 AM on Monday 22 Dec 2014 (Local Time) from KESC Reporting Station
Overcast Overcast  
Wind Chill: 29°   Ceiling: 1400
Heat Index: 36°   Visibility: 3mi
Dew Point: 30°   Wind: 8mph
Humidity: 81%   Direction: 150°SSE
Pressure: 29.93"   Gusts: NA
Location:  45.682°N, 87.2748°W
Report Text: KESC 221655Z AUTO 15007KT 3SM OVC014 02/M01 A2993 RMK AO1
Loading
Personal Weather Stations






























Interactive Weather Map New forecast layout! Learn more

10-Day Weather Forecast

Advertisements
Track Severe Weather on mobile